Doris — 9HA2632 — position and weather

sailwx.info

Track history (hours):
 
Tides and Currents Weather Stations Pressure Air Temp Water Temp Dewpoint Dewpoint Depression Visibility Wind Speed Wind Dir Waves Ship Positions

Doris

Last reported at 2017-Feb-27 08:13 UTC. Time now 2017-Mar-24 08:10 UTC.
Position N 01°15' E 104°02'.
Warning: this ship's position is 24 days out of date.

Length 182 m; draft 10 m.

Type: Cargo ship. MMSI: 215080000.

Date/timePositionNaut miles runAvg speedWind from/ knotsBaromVisibWave heightAir tempDewpointWater temp
2017-Feb-27 08:13N 01°15' E 104°02'4 0.9
2017-Feb-27 04:13N 01°18' E 104°00'0 0.0
2017-Feb-26 23:07N 01°18' E 104°00'0 0.0
2017-Feb-26 21:25N 01°18' E 104°00'0 0.1
2017-Feb-26 20:19N 01°18' E 104°00'0 0.1
2017-Feb-26 19:25N 01°18' E 104°00'0 0.0
2017-Feb-26 10:31N 01°18' E 104°00'0 0.0
2017-Feb-26 04:31N 01°18' E 104°00'0 0.1
2017-Feb-26 03:28N 01°18' E 104°00'3 3.4
2017-Feb-26 02:31N 01°15' E 103°58'5 5.6
2017-Feb-26 01:33N 01°12' E 103°53'8 7.8
2017-Feb-26 00:33N 01°08' E 103°46'8 8.0
2017-Feb-25 23:33N 01°03' E 103°40'9 8.8
2017-Feb-25 22:33N 01°06' E 103°32'9 9.6
2017-Feb-25 21:33N 01°12' E 103°24'69 9.7
2017-Feb-25 14:25N 01°48' E 102°25'8 9.4
2017-Feb-25 13:33N 01°52' E 102°18'  
Track history (hours):
 
Tides and Currents Weather Stations Pressure Air Temp Water Temp Dewpoint Dewpoint Depression Visibility Wind Speed Wind Dir Waves Ship Positions

Doris

Last reported at 2017-Feb-27 08:13 UTC. Time now 2017-Mar-24 08:10 UTC.
Position N 01°15' E 104°02'.
Warning: this ship's position is 24 days out of date.

Length 182 m; draft 10 m.

Type: Cargo ship. MMSI: 215080000.

Date/timePositionNaut miles runAvg speedWind from/ knotsBaromVisibWave heightAir tempDewpointWater temp
2017-Feb-27 08:13N 01°15' E 104°02'4 0.9
2017-Feb-27 04:13N 01°18' E 104°00'0 0.0
2017-Feb-26 23:07N 01°18' E 104°00'0 0.0
2017-Feb-26 21:25N 01°18' E 104°00'0 0.1
2017-Feb-26 20:19N 01°18' E 104°00'0 0.1
2017-Feb-26 19:25N 01°18' E 104°00'0 0.0
2017-Feb-26 10:31N 01°18' E 104°00'0 0.0
2017-Feb-26 04:31N 01°18' E 104°00'0 0.1
2017-Feb-26 03:28N 01°18' E 104°00'3 3.4
2017-Feb-26 02:31N 01°15' E 103°58'5 5.6
2017-Feb-26 01:33N 01°12' E 103°53'8 7.8
2017-Feb-26 00:33N 01°08' E 103°46'8 8.0
2017-Feb-25 23:33N 01°03' E 103°40'9 8.8
2017-Feb-25 22:33N 01°06' E 103°32'9 9.6
2017-Feb-25 21:33N 01°12' E 103°24'69 9.7
2017-Feb-25 14:25N 01°48' E 102°25'8 9.4
2017-Feb-25 13:33N 01°52' E 102°18'  

Dump ship's entire track history